sensor_id;sensor_type;location;lat;lon;timestamp;temperature;humidity
27226;DHT22;14732;51.074;3.788;2022-08-21T00:00:46;18.50;99.90
27226;DHT22;14732;51.074;3.788;2022-08-21T00:03:12;18.50;99.90
27226;DHT22;14732;51.074;3.788;2022-08-21T00:05:44;18.50;99.90
27226;DHT22;14732;51.074;3.788;2022-08-21T00:08:11;18.40;99.90
27226;DHT22;14732;51.074;3.788;2022-08-21T00:10:37;18.30;99.90
27226;DHT22;14732;51.074;3.788;2022-08-21T00:13:04;18.20;99.90
27226;DHT22;14732;51.074;3.788;2022-08-21T00:15:31;18.20;99.90
27226;DHT22;14732;51.074;3.788;2022-08-21T00:17:57;18.00;99.90
27226;DHT22;14732;51.074;3.788;2022-08-21T00:20:24;17.90;99.90
27226;DHT22;14732;51.074;3.788;2022-08-21T00:22:50;17.80;99.90
27226;DHT22;14732;51.074;3.788;2022-08-21T00:25:16;17.90;99.90
27226;DHT22;14732;51.074;3.788;2022-08-21T00:27:43;17.90;99.90
27226;DHT22;14732;51.074;3.788;2022-08-21T00:30:10;17.90;99.90
27226;DHT22;14732;51.074;3.788;2022-08-21T00:32:38;17.90;99.90
27226;DHT22;14732;51.074;3.788;2022-08-21T00:35:10;17.90;99.90
27226;DHT22;14732;51.074;3.788;2022-08-21T00:37:37;17.80;99.90
27226;DHT22;14732;51.074;3.788;2022-08-21T00:40:05;17.80;99.90
27226;DHT22;14732;51.074;3.788;2022-08-21T00:42:31;17.70;99.90
27226;DHT22;14732;51.074;3.788;2022-08-21T00:44:57;17.70;99.90
27226;DHT22;14732;51.074;3.788;2022-08-21T00:47:23;17.70;99.90
27226;DHT22;14732;51.074;3.788;2022-08-21T00:49:49;17.70;99.90
27226;DHT22;14732;51.074;3.788;2022-08-21T00:52:22;17.60;99.90
27226;DHT22;14732;51.074;3.788;2022-08-21T00:54:50;17.60;99.90
27226;DHT22;14732;51.074;3.788;2022-08-21T00:57:20;17.60;99.90
27226;DHT22;14732;51.074;3.788;2022-08-21T00:59:50;17.50;99.90
27226;DHT22;14732;51.074;3.788;2022-08-21T01:02:17;17.50;99.90
27226;DHT22;14732;51.074;3.788;2022-08-21T01:04:43;17.40;99.90
27226;DHT22;14732;51.074;3.788;2022-08-21T01:07:09;17.30;99.90
27226;DHT22;14732;51.074;3.788;2022-08-21T01:09:35;17.20;99.90
27226;DHT22;14732;51.074;3.788;2022-08-21T01:12:02;17.20;99.90
27226;DHT22;14732;51.074;3.788;2022-08-21T01:14:29;17.20;99.90
27226;DHT22;14732;51.074;3.788;2022-08-21T01:16:56;17.20;99.90
27226;DHT22;14732;51.074;3.788;2022-08-21T01:19:23;17.20;99.90
27226;DHT22;14732;51.074;3.788;2022-08-21T01:21:49;17.10;99.90
27226;DHT22;14732;51.074;3.788;2022-08-21T01:24:15;17.10;99.90
27226;DHT22;14732;51.074;3.788;2022-08-21T01:26:41;17.00;99.90
27226;DHT22;14732;51.074;3.788;2022-08-21T01:29:30;17.00;99.90
27226;DHT22;14732;51.074;3.788;2022-08-21T01:31:58;17.00;99.90
27226;DHT22;14732;51.074;3.788;2022-08-21T01:34:24;16.90;99.90
27226;DHT22;14732;51.074;3.788;2022-08-21T01:36:50;16.90;99.90
27226;DHT22;14732;51.074;3.788;2022-08-21T01:39:16;16.90;99.90
27226;DHT22;14732;51.074;3.788;2022-08-21T01:41:42;16.90;99.90
27226;DHT22;14732;51.074;3.788;2022-08-21T01:44:08;16.90;99.90
27226;DHT22;14732;51.074;3.788;2022-08-21T01:46:34;16.80;99.90
27226;DHT22;14732;51.074;3.788;2022-08-21T01:48:59;16.90;99.90
27226;DHT22;14732;51.074;3.788;2022-08-21T01:51:25;16.80;99.90
27226;DHT22;14732;51.074;3.788;2022-08-21T01:53:51;16.80;99.90
27226;DHT22;14732;51.074;3.788;2022-08-21T01:56:17;16.80;99.90
27226;DHT22;14732;51.074;3.788;2022-08-21T01:58:46;16.70;99.90
27226;DHT22;14732;51.074;3.788;2022-08-21T02:01:12;16.70;99.90
27226;DHT22;14732;51.074;3.788;2022-08-21T02:03:39;16.70;99.90
27226;DHT22;14732;51.074;3.788;2022-08-21T02:06:07;16.70;99.90
27226;DHT22;14732;51.074;3.788;2022-08-21T02:08:33;16.70;99.90
27226;DHT22;14732;51.074;3.788;2022-08-21T02:10:59;16.60;99.90
27226;DHT22;14732;51.074;3.788;2022-08-21T02:13:25;16.60;99.90
27226;DHT22;14732;51.074;3.788;2022-08-21T02:15:51;16.70;99.90
27226;DHT22;14732;51.074;3.788;2022-08-21T02:18:17;16.80;99.90
27226;DHT22;14732;51.074;3.788;2022-08-21T02:20:46;16.70;99.90
27226;DHT22;14732;51.074;3.788;2022-08-21T02:23:12;16.60;99.90
27226;DHT22;14732;51.074;3.788;2022-08-21T02:25:39;16.60;99.90
27226;DHT22;14732;51.074;3.788;2022-08-21T02:28:13;16.70;99.90
27226;DHT22;14732;51.074;3.788;2022-08-21T02:30:43;16.70;99.90
27226;DHT22;14732;51.074;3.788;2022-08-21T02:33:10;16.60;99.90
27226;DHT22;14732;51.074;3.788;2022-08-21T02:35:38;16.70;99.90
27226;DHT22;14732;51.074;3.788;2022-08-21T02:38:06;16.60;99.90
27226;DHT22;14732;51.074;3.788;2022-08-21T02:40:35;16.60;99.90
27226;DHT22;14732;51.074;3.788;2022-08-21T02:43:04;16.60;99.90
27226;DHT22;14732;51.074;3.788;2022-08-21T02:45:30;16.60;99.90
27226;DHT22;14732;51.074;3.788;2022-08-21T02:48:00;16.50;99.90
27226;DHT22;14732;51.074;3.788;2022-08-21T02:50:32;16.60;99.90
27226;DHT22;14732;51.074;3.788;2022-08-21T02:52:59;16.70;99.90
27226;DHT22;14732;51.074;3.788;2022-08-21T02:55:26;16.70;99.90
27226;DHT22;14732;51.074;3.788;2022-08-21T02:57:53;16.70;99.90
27226;DHT22;14732;51.074;3.788;2022-08-21T03:00:21;16.80;99.90
27226;DHT22;14732;51.074;3.788;2022-08-21T03:02:47;16.70;99.90
27226;DHT22;14732;51.074;3.788;2022-08-21T03:05:14;16.60;99.90
27226;DHT22;14732;51.074;3.788;2022-08-21T03:07:41;16.50;99.90
27226;DHT22;14732;51.074;3.788;2022-08-21T03:10:07;16.40;99.90
27226;DHT22;14732;51.074;3.788;2022-08-21T03:12:33;16.40;99.90
27226;DHT22;14732;51.074;3.788;2022-08-21T03:15:02;16.50;99.90
27226;DHT22;14732;51.074;3.788;2022-08-21T03:17:28;16.60;99.90
27226;DHT22;14732;51.074;3.788;2022-08-21T03:19:54;16.50;99.90
27226;DHT22;14732;51.074;3.788;2022-08-21T03:22:19;16.40;99.90
27226;DHT22;14732;51.074;3.788;2022-08-21T03:24:45;16.40;99.90
27226;DHT22;14732;51.074;3.788;2022-08-21T03:27:11;16.40;99.90
27226;DHT22;14732;51.074;3.788;2022-08-21T03:29:38;16.40;99.90
27226;DHT22;14732;51.074;3.788;2022-08-21T03:32:04;16.40;99.90
27226;DHT22;14732;51.074;3.788;2022-08-21T03:34:30;16.40;99.90
27226;DHT22;14732;51.074;3.788;2022-08-21T03:36:56;16.40;99.90
27226;DHT22;14732;51.074;3.788;2022-08-21T03:39:21;16.40;99.90
27226;DHT22;14732;51.074;3.788;2022-08-21T03:41:47;16.30;99.90
27226;DHT22;14732;51.074;3.788;2022-08-21T03:44:13;16.30;99.90
27226;DHT22;14732;51.074;3.788;2022-08-21T03:46:39;16.40;99.90
27226;DHT22;14732;51.074;3.788;2022-08-21T03:49:06;16.30;99.90
27226;DHT22;14732;51.074;3.788;2022-08-21T03:51:31;16.40;99.90
27226;DHT22;14732;51.074;3.788;2022-08-21T03:53:59;16.40;99.90
27226;DHT22;14732;51.074;3.788;2022-08-21T03:56:25;16.30;99.90
27226;DHT22;14732;51.074;3.788;2022-08-21T03:58:50;16.30;99.90
27226;DHT22;14732;51.074;3.788;2022-08-21T04:01:16;16.30;99.90
27226;DHT22;14732;51.074;3.788;2022-08-21T04:03:41;16.30;99.90
27226;DHT22;14732;51.074;3.788;2022-08-21T04:06:07;16.40;99.90
27226;DHT22;14732;51.074;3.788;2022-08-21T04:08:33;16.40;99.90
27226;DHT22;14732;51.074;3.788;2022-08-21T04:11:00;16.40;99.90
27226;DHT22;14732;51.074;3.788;2022-08-21T04:13:26;16.50;99.90
27226;DHT22;14732;51.074;3.788;2022-08-21T04:15:54;16.40;99.90
27226;DHT22;14732;51.074;3.788;2022-08-21T04:18:20;16.30;99.90
27226;DHT22;14732;51.074;3.788;2022-08-21T04:20:50;16.20;99.90
27226;DHT22;14732;51.074;3.788;2022-08-21T04:23:20;16.20;99.90
27226;DHT22;14732;51.074;3.788;2022-08-21T04:25:46;16.20;99.90
27226;DHT22;14732;51.074;3.788;2022-08-21T04:28:12;16.20;99.90
27226;DHT22;14732;51.074;3.788;2022-08-21T04:30:38;16.20;99.90
27226;DHT22;14732;51.074;3.788;2022-08-21T04:33:03;16.20;99.90
27226;DHT22;14732;51.074;3.788;2022-08-21T04:35:29;16.30;99.90
27226;DHT22;14732;51.074;3.788;2022-08-21T04:37:55;16.20;99.90
27226;DHT22;14732;51.074;3.788;2022-08-21T04:40:22;16.20;99.90
27226;DHT22;14732;51.074;3.788;2022-08-21T04:42:51;16.20;99.90
27226;DHT22;14732;51.074;3.788;2022-08-21T04:45:25;16.20;99.90
27226;DHT22;14732;51.074;3.788;2022-08-21T04:47:52;16.20;99.90
27226;DHT22;14732;51.074;3.788;2022-08-21T04:50:19;16.20;99.90
27226;DHT22;14732;51.074;3.788;2022-08-21T04:52:45;16.30;99.90
27226;DHT22;14732;51.074;3.788;2022-08-21T04:55:11;16.40;99.90
27226;DHT22;14732;51.074;3.788;2022-08-21T04:57:38;16.30;99.90
27226;DHT22;14732;51.074;3.788;2022-08-21T05:00:05;16.30;99.90
27226;DHT22;14732;51.074;3.788;2022-08-21T05:02:31;16.40;99.90
27226;DHT22;14732;51.074;3.788;2022-08-21T05:04:58;16.40;99.90
27226;DHT22;14732;51.074;3.788;2022-08-21T05:07:27;16.40;99.90
27226;DHT22;14732;51.074;3.788;2022-08-21T05:09:53;16.30;99.90
27226;DHT22;14732;51.074;3.788;2022-08-21T05:12:19;16.30;99.90
27226;DHT22;14732;51.074;3.788;2022-08-21T05:14:45;16.30;99.90
27226;DHT22;14732;51.074;3.788;2022-08-21T05:17:12;16.30;99.90
27226;DHT22;14732;51.074;3.788;2022-08-21T05:19:37;16.40;99.90
27226;DHT22;14732;51.074;3.788;2022-08-21T05:22:03;16.50;99.90
27226;DHT22;14732;51.074;3.788;2022-08-21T05:24:29;16.50;99.90
27226;DHT22;14732;51.074;3.788;2022-08-21T05:26:55;16.50;99.90
27226;DHT22;14732;51.074;3.788;2022-08-21T05:29:21;16.50;99.90
27226;DHT22;14732;51.074;3.788;2022-08-21T05:31:47;16.60;99.90
27226;DHT22;14732;51.074;3.788;2022-08-21T05:34:19;16.70;99.90
27226;DHT22;14732;51.074;3.788;2022-08-21T05:36:45;16.60;99.90
27226;DHT22;14732;51.074;3.788;2022-08-21T05:39:11;16.70;99.90
27226;DHT22;14732;51.074;3.788;2022-08-21T05:41:37;16.70;99.90
27226;DHT22;14732;51.074;3.788;2022-08-21T05:44:03;16.70;99.90
27226;DHT22;14732;51.074;3.788;2022-08-21T05:46:29;16.90;99.90
27226;DHT22;14732;51.074;3.788;2022-08-21T05:48:54;17.20;99.90
27226;DHT22;14732;51.074;3.788;2022-08-21T05:51:20;18.00;99.90
27226;DHT22;14732;51.074;3.788;2022-08-21T05:53:46;19.30;99.90
27226;DHT22;14732;51.074;3.788;2022-08-21T05:56:13;20.90;99.90
27226;DHT22;14732;51.074;3.788;2022-08-21T05:58:39;22.40;99.90
27226;DHT22;14732;51.074;3.788;2022-08-21T06:01:05;23.80;99.90
27226;DHT22;14732;51.074;3.788;2022-08-21T06:03:35;25.00;99.90
27226;DHT22;14732;51.074;3.788;2022-08-21T06:06:01;26.20;99.90
27226;DHT22;14732;51.074;3.788;2022-08-21T06:08:27;26.70;99.90
27226;DHT22;14732;51.074;3.788;2022-08-21T06:10:55;26.60;99.90
27226;DHT22;14732;51.074;3.788;2022-08-21T06:13:21;26.30;99.90
27226;DHT22;14732;51.074;3.788;2022-08-21T06:15:47;25.80;99.90
27226;DHT22;14732;51.074;3.788;2022-08-21T06:18:14;25.30;99.90
27226;DHT22;14732;51.074;3.788;2022-08-21T06:20:40;24.70;99.90
27226;DHT22;14732;51.074;3.788;2022-08-21T06:23:05;24.00;99.90
27226;DHT22;14732;51.074;3.788;2022-08-21T06:25:31;23.50;99.90
27226;DHT22;14732;51.074;3.788;2022-08-21T06:28:05;23.10;99.90
27226;DHT22;14732;51.074;3.788;2022-08-21T06:30:32;22.80;99.90
27226;DHT22;14732;51.074;3.788;2022-08-21T06:32:58;22.40;99.90
27226;DHT22;14732;51.074;3.788;2022-08-21T06:35:23;22.10;99.90
27226;DHT22;14732;51.074;3.788;2022-08-21T06:37:50;21.80;99.90
27226;DHT22;14732;51.074;3.788;2022-08-21T06:40:16;21.60;99.90
27226;DHT22;14732;51.074;3.788;2022-08-21T06:42:42;21.40;99.90
27226;DHT22;14732;51.074;3.788;2022-08-21T06:45:08;21.40;99.90
27226;DHT22;14732;51.074;3.788;2022-08-21T06:47:34;21.40;99.90
27226;DHT22;14732;51.074;3.788;2022-08-21T06:50:00;21.30;99.90
27226;DHT22;14732;51.074;3.788;2022-08-21T06:52:25;21.30;99.90
27226;DHT22;14732;51.074;3.788;2022-08-21T06:54:51;21.10;99.90
27226;DHT22;14732;51.074;3.788;2022-08-21T06:57:17;20.90;99.90
27226;DHT22;14732;51.074;3.788;2022-08-21T06:59:43;21.10;99.90
27226;DHT22;14732;51.074;3.788;2022-08-21T07:02:09;21.20;99.90
27226;DHT22;14732;51.074;3.788;2022-08-21T07:04:34;21.00;99.90
27226;DHT22;14732;51.074;3.788;2022-08-21T07:07:00;21.10;99.90
27226;DHT22;14732;51.074;3.788;2022-08-21T07:09:25;21.10;99.90
27226;DHT22;14732;51.074;3.788;2022-08-21T07:11:54;21.20;99.90
27226;DHT22;14732;51.074;3.788;2022-08-21T07:14:21;21.20;99.90
27226;DHT22;14732;51.074;3.788;2022-08-21T07:16:48;21.30;99.90
27226;DHT22;14732;51.074;3.788;2022-08-21T07:19:13;21.60;99.90
27226;DHT22;14732;51.074;3.788;2022-08-21T07:21:39;21.80;99.90
27226;DHT22;14732;51.074;3.788;2022-08-21T07:24:05;21.80;99.90
27226;DHT22;14732;51.074;3.788;2022-08-21T07:26:30;22.00;99.90
27226;DHT22;14732;51.074;3.788;2022-08-21T07:28:56;22.10;99.90
27226;DHT22;14732;51.074;3.788;2022-08-21T07:31:23;22.20;99.90
27226;DHT22;14732;51.074;3.788;2022-08-21T07:33:49;22.30;99.90
27226;DHT22;14732;51.074;3.788;2022-08-21T07:36:15;22.30;99.90
27226;DHT22;14732;51.074;3.788;2022-08-21T07:38:41;22.40;99.90
27226;DHT22;14732;51.074;3.788;2022-08-21T07:41:13;22.70;99.90
27226;DHT22;14732;51.074;3.788;2022-08-21T07:43:39;22.60;99.90
27226;DHT22;14732;51.074;3.788;2022-08-21T07:46:05;22.60;99.90
27226;DHT22;14732;51.074;3.788;2022-08-21T07:48:30;22.60;99.90
27226;DHT22;14732;51.074;3.788;2022-08-21T07:50:56;22.90;99.90
27226;DHT22;14732;51.074;3.788;2022-08-21T07:53:23;23.00;99.90
27226;DHT22;14732;51.074;3.788;2022-08-21T07:55:48;22.80;99.90
27226;DHT22;14732;51.074;3.788;2022-08-21T07:58:14;22.80;99.90
27226;DHT22;14732;51.074;3.788;2022-08-21T08:00:41;22.70;99.90
27226;DHT22;14732;51.074;3.788;2022-08-21T08:03:06;22.60;99.90
27226;DHT22;14732;51.074;3.788;2022-08-21T08:05:32;22.80;99.90
27226;DHT22;14732;51.074;3.788;2022-08-21T08:07:58;22.80;99.90
27226;DHT22;14732;51.074;3.788;2022-08-21T08:10:24;22.70;99.90
27226;DHT22;14732;51.074;3.788;2022-08-21T08:12:51;22.70;99.90
27226;DHT22;14732;51.074;3.788;2022-08-21T08:15:19;23.00;99.90
27226;DHT22;14732;51.074;3.788;2022-08-21T08:17:47;22.80;99.90
27226;DHT22;14732;51.074;3.788;2022-08-21T08:20:15;22.70;99.90
27226;DHT22;14732;51.074;3.788;2022-08-21T08:22:42;22.90;99.90
27226;DHT22;14732;51.074;3.788;2022-08-21T08:25:10;23.00;99.90
27226;DHT22;14732;51.074;3.788;2022-08-21T08:27:36;22.70;99.90
27226;DHT22;14732;51.074;3.788;2022-08-21T08:30:03;22.80;99.90
27226;DHT22;14732;51.074;3.788;2022-08-21T08:32:29;22.90;99.90
27226;DHT22;14732;51.074;3.788;2022-08-21T08:34:55;23.20;99.90
27226;DHT22;14732;51.074;3.788;2022-08-21T08:37:21;23.60;99.90
27226;DHT22;14732;51.074;3.788;2022-08-21T08:39:47;23.10;99.90
27226;DHT22;14732;51.074;3.788;2022-08-21T08:42:29;23.10;99.90
27226;DHT22;14732;51.074;3.788;2022-08-21T08:45:16;23.50;99.90
27226;DHT22;14732;51.074;3.788;2022-08-21T08:47:51;24.00;99.90
27226;DHT22;14732;51.074;3.788;2022-08-21T08:53:02;23.90;99.90
27226;DHT22;14732;51.074;3.788;2022-08-21T08:55:35;23.80;99.90
27226;DHT22;14732;51.074;3.788;2022-08-21T08:58:02;24.40;99.90
27226;DHT22;14732;51.074;3.788;2022-08-21T09:00:29;25.00;99.90
27226;DHT22;14732;51.074;3.788;2022-08-21T09:02:58;25.10;99.90
27226;DHT22;14732;51.074;3.788;2022-08-21T09:05:29;26.50;99.90
27226;DHT22;14732;51.074;3.788;2022-08-21T09:11:09;29.00;99.90
27226;DHT22;14732;51.074;3.788;2022-08-21T09:16:22;28.40;99.90
27226;DHT22;14732;51.074;3.788;2022-08-21T09:21:50;28.20;99.90
27226;DHT22;14732;51.074;3.788;2022-08-21T09:24:29;28.30;99.90
27226;DHT22;14732;51.074;3.788;2022-08-21T09:27:13;28.00;99.90
27226;DHT22;14732;51.074;3.788;2022-08-21T09:29:42;29.20;99.90
27226;DHT22;14732;51.074;3.788;2022-08-21T09:32:19;29.20;99.90
27226;DHT22;14732;51.074;3.788;2022-08-21T09:35:04;29.30;99.90
27226;DHT22;14732;51.074;3.788;2022-08-21T09:37:32;29.40;99.90
27226;DHT22;14732;51.074;3.788;2022-08-21T09:40:00;29.30;99.90
27226;DHT22;14732;51.074;3.788;2022-08-21T09:42:29;28.80;99.90
27226;DHT22;14732;51.074;3.788;2022-08-21T09:45:15;28.90;99.90
27226;DHT22;14732;51.074;3.788;2022-08-21T09:47:42;28.70;99.90
27226;DHT22;14732;51.074;3.788;2022-08-21T09:50:23;28.60;99.90
27226;DHT22;14732;51.074;3.788;2022-08-21T09:53:00;28.20;99.90
27226;DHT22;14732;51.074;3.788;2022-08-21T09:55:38;27.90;99.90
27226;DHT22;14732;51.074;3.788;2022-08-21T09:58:32;27.50;99.90
27226;DHT22;14732;51.074;3.788;2022-08-21T10:01:02;27.10;99.90
27226;DHT22;14732;51.074;3.788;2022-08-21T10:03:28;26.90;99.90
27226;DHT22;14732;51.074;3.788;2022-08-21T10:06:04;26.80;99.90
27226;DHT22;14732;51.074;3.788;2022-08-21T10:08:36;27.00;99.90
27226;DHT22;14732;51.074;3.788;2022-08-21T10:11:11;26.70;99.90
27226;DHT22;14732;51.074;3.788;2022-08-21T10:13:56;27.10;99.90
27226;DHT22;14732;51.074;3.788;2022-08-21T10:19:42;27.40;99.90
27226;DHT22;14732;51.074;3.788;2022-08-21T10:36:13;27.20;99.90
27226;DHT22;14732;51.074;3.788;2022-08-21T10:38:55;27.20;99.90
27226;DHT22;14732;51.074;3.788;2022-08-21T10:41:28;27.20;99.90
27226;DHT22;14732;51.074;3.788;2022-08-21T10:46:50;27.80;99.90
27226;DHT22;14732;51.074;3.788;2022-08-21T10:50:23;27.90;99.90
27226;DHT22;14732;51.074;3.788;2022-08-21T10:55:18;28.00;99.90
27226;DHT22;14732;51.074;3.788;2022-08-21T10:57:58;28.00;99.90
27226;DHT22;14732;51.074;3.788;2022-08-21T11:00:38;28.10;99.90
27226;DHT22;14732;51.074;3.788;2022-08-21T11:03:10;27.50;99.90
27226;DHT22;14732;51.074;3.788;2022-08-21T11:08:15;27.80;99.90
27226;DHT22;14732;51.074;3.788;2022-08-21T11:13:48;27.60;99.90
27226;DHT22;14732;51.074;3.788;2022-08-21T11:19:02;26.50;99.90
27226;DHT22;14732;51.074;3.788;2022-08-21T11:21:42;26.50;99.90
27226;DHT22;14732;51.074;3.788;2022-08-21T11:27:24;27.60;99.90
27226;DHT22;14732;51.074;3.788;2022-08-21T11:29:51;28.00;99.90
27226;DHT22;14732;51.074;3.788;2022-08-21T11:35:20;28.40;99.90
27226;DHT22;14732;51.074;3.788;2022-08-21T11:43:42;28.30;99.90
27226;DHT22;14732;51.074;3.788;2022-08-21T11:51:48;27.20;99.90
27226;DHT22;14732;51.074;3.788;2022-08-21T11:54:31;27.40;99.90
27226;DHT22;14732;51.074;3.788;2022-08-21T11:57:17;27.30;99.90
27226;DHT22;14732;51.074;3.788;2022-08-21T11:59:55;27.50;99.90
27226;DHT22;14732;51.074;3.788;2022-08-21T12:02:27;27.50;99.90
27226;DHT22;14732;51.074;3.788;2022-08-21T12:04:57;27.40;99.90
27226;DHT22;14732;51.074;3.788;2022-08-21T12:07:40;27.10;99.90
27226;DHT22;14732;51.074;3.788;2022-08-21T12:10:12;27.30;99.90
27226;DHT22;14732;51.074;3.788;2022-08-21T12:12:40;27.10;99.90
27226;DHT22;14732;51.074;3.788;2022-08-21T12:17:39;26.60;99.90
27226;DHT22;14732;51.074;3.788;2022-08-21T12:22:41;27.20;99.90
27226;DHT22;14732;51.074;3.788;2022-08-21T12:25:18;27.40;99.90
27226;DHT22;14732;51.074;3.788;2022-08-21T12:28:01;27.60;99.90
27226;DHT22;14732;51.074;3.788;2022-08-21T12:30:37;27.10;99.90
27226;DHT22;14732;51.074;3.788;2022-08-21T12:36:07;26.70;99.90
27226;DHT22;14732;51.074;3.788;2022-08-21T12:41:15;27.20;99.90
27226;DHT22;14732;51.074;3.788;2022-08-21T12:43:53;27.40;99.90
27226;DHT22;14732;51.074;3.788;2022-08-21T12:46:30;27.60;99.90
27226;DHT22;14732;51.074;3.788;2022-08-21T12:49:03;27.50;99.90
27226;DHT22;14732;51.074;3.788;2022-08-21T12:51:57;27.10;99.90
27226;DHT22;14732;51.074;3.788;2022-08-21T12:54:32;26.80;99.90
27226;DHT22;14732;51.074;3.788;2022-08-21T12:57:04;26.80;99.90
27226;DHT22;14732;51.074;3.788;2022-08-21T12:59:31;27.00;99.90
27226;DHT22;14732;51.074;3.788;2022-08-21T13:01:59;27.20;99.90
27226;DHT22;14732;51.074;3.788;2022-08-21T13:04:36;27.40;99.90
27226;DHT22;14732;51.074;3.788;2022-08-21T13:07:15;27.40;99.90
27226;DHT22;14732;51.074;3.788;2022-08-21T13:12:40;27.60;99.90
27226;DHT22;14732;51.074;3.788;2022-08-21T13:15:07;27.60;99.90
27226;DHT22;14732;51.074;3.788;2022-08-21T13:17:36;27.50;99.90
27226;DHT22;14732;51.074;3.788;2022-08-21T13:20:08;27.40;99.90
27226;DHT22;14732;51.074;3.788;2022-08-21T13:22:41;27.30;99.90
27226;DHT22;14732;51.074;3.788;2022-08-21T13:25:17;27.30;99.90
27226;DHT22;14732;51.074;3.788;2022-08-21T13:27:44;27.60;99.90
27226;DHT22;14732;51.074;3.788;2022-08-21T13:30:20;27.60;99.90
27226;DHT22;14732;51.074;3.788;2022-08-21T13:32:55;27.50;99.90
27226;DHT22;14732;51.074;3.788;2022-08-21T13:35:52;27.70;99.90
27226;DHT22;14732;51.074;3.788;2022-08-21T13:38:29;27.90;99.90
27226;DHT22;14732;51.074;3.788;2022-08-21T13:40:59;28.10;99.90
27226;DHT22;14732;51.074;3.788;2022-08-21T13:43:31;28.30;99.90
27226;DHT22;14732;51.074;3.788;2022-08-21T13:45:57;28.20;99.80
27226;DHT22;14732;51.074;3.788;2022-08-21T13:48:26;28.20;99.90
27226;DHT22;14732;51.074;3.788;2022-08-21T13:50:52;27.70;99.90
27226;DHT22;14732;51.074;3.788;2022-08-21T13:53:23;27.30;99.90
27226;DHT22;14732;51.074;3.788;2022-08-21T13:55:52;27.00;99.90
27226;DHT22;14732;51.074;3.788;2022-08-21T13:58:30;26.90;99.90
27226;DHT22;14732;51.074;3.788;2022-08-21T14:00:59;26.70;99.90
27226;DHT22;14732;51.074;3.788;2022-08-21T14:03:41;26.60;99.90
27226;DHT22;14732;51.074;3.788;2022-08-21T14:06:22;26.70;99.90
27226;DHT22;14732;51.074;3.788;2022-08-21T14:08:55;26.80;99.90
27226;DHT22;14732;51.074;3.788;2022-08-21T14:11:22;27.00;99.90
27226;DHT22;14732;51.074;3.788;2022-08-21T14:14:22;27.10;99.90
27226;DHT22;14732;51.074;3.788;2022-08-21T14:16:57;27.30;99.90
27226;DHT22;14732;51.074;3.788;2022-08-21T14:19:27;27.00;99.90
27226;DHT22;14732;51.074;3.788;2022-08-21T14:21:53;27.10;99.90
27226;DHT22;14732;51.074;3.788;2022-08-21T14:29:26;26.90;99.90
27226;DHT22;14732;51.074;3.788;2022-08-21T14:31:56;27.00;99.90
27226;DHT22;14732;51.074;3.788;2022-08-21T14:34:25;27.00;99.90
27226;DHT22;14732;51.074;3.788;2022-08-21T14:36:52;26.90;99.90
27226;DHT22;14732;51.074;3.788;2022-08-21T14:39:18;27.00;99.90
27226;DHT22;14732;51.074;3.788;2022-08-21T14:41:44;27.10;99.90
27226;DHT22;14732;51.074;3.788;2022-08-21T14:44:17;26.90;99.90
27226;DHT22;14732;51.074;3.788;2022-08-21T14:46:43;27.00;99.90
27226;DHT22;14732;51.074;3.788;2022-08-21T14:49:09;27.20;99.90
27226;DHT22;14732;51.074;3.788;2022-08-21T14:51:34;27.40;99.90
27226;DHT22;14732;51.074;3.788;2022-08-21T14:54:00;27.60;99.90
27226;DHT22;14732;51.074;3.788;2022-08-21T14:56:26;27.40;99.90
27226;DHT22;14732;51.074;3.788;2022-08-21T14:58:52;27.20;99.90
27226;DHT22;14732;51.074;3.788;2022-08-21T15:01:20;27.20;99.90
27226;DHT22;14732;51.074;3.788;2022-08-21T15:03:47;27.10;99.90
27226;DHT22;14732;51.074;3.788;2022-08-21T15:06:15;27.00;99.90
27226;DHT22;14732;51.074;3.788;2022-08-21T15:08:41;26.80;99.90
27226;DHT22;14732;51.074;3.788;2022-08-21T15:11:11;26.80;99.90
27226;DHT22;14732;51.074;3.788;2022-08-21T15:13:38;26.60;99.90
27226;DHT22;14732;51.074;3.788;2022-08-21T15:16:04;26.70;99.90
27226;DHT22;14732;51.074;3.788;2022-08-21T15:18:30;26.70;99.90
27226;DHT22;14732;51.074;3.788;2022-08-21T15:20:56;26.80;99.90
27226;DHT22;14732;51.074;3.788;2022-08-21T15:23:22;26.70;99.90
27226;DHT22;14732;51.074;3.788;2022-08-21T15:25:49;26.80;99.90
27226;DHT22;14732;51.074;3.788;2022-08-21T15:28:16;26.70;99.90
27226;DHT22;14732;51.074;3.788;2022-08-21T15:30:44;26.60;99.90
27226;DHT22;14732;51.074;3.788;2022-08-21T15:33:10;26.40;99.90
27226;DHT22;14732;51.074;3.788;2022-08-21T15:35:36;26.70;99.90
27226;DHT22;14732;51.074;3.788;2022-08-21T15:38:02;26.80;99.90
27226;DHT22;14732;51.074;3.788;2022-08-21T15:40:28;26.90;99.90
27226;DHT22;14732;51.074;3.788;2022-08-21T15:42:58;26.90;99.90
27226;DHT22;14732;51.074;3.788;2022-08-21T15:45:25;26.60;99.90
27226;DHT22;14732;51.074;3.788;2022-08-21T15:47:51;26.80;99.90
27226;DHT22;14732;51.074;3.788;2022-08-21T15:50:17;26.70;99.90
27226;DHT22;14732;51.074;3.788;2022-08-21T15:52:43;26.50;99.90
27226;DHT22;14732;51.074;3.788;2022-08-21T15:55:10;26.60;99.90
27226;DHT22;14732;51.074;3.788;2022-08-21T15:57:37;26.70;99.90
27226;DHT22;14732;51.074;3.788;2022-08-21T16:00:10;26.90;99.90
27226;DHT22;14732;51.074;3.788;2022-08-21T16:02:39;26.80;99.90
27226;DHT22;14732;51.074;3.788;2022-08-21T16:05:05;26.80;99.90
27226;DHT22;14732;51.074;3.788;2022-08-21T16:07:31;26.70;99.90
27226;DHT22;14732;51.074;3.788;2022-08-21T16:09:57;26.60;99.90
27226;DHT22;14732;51.074;3.788;2022-08-21T16:12:28;26.60;99.90
27226;DHT22;14732;51.074;3.788;2022-08-21T16:14:57;26.80;99.90
27226;DHT22;14732;51.074;3.788;2022-08-21T16:17:32;27.00;99.90
27226;DHT22;14732;51.074;3.788;2022-08-21T16:20:00;27.00;99.90
27226;DHT22;14732;51.074;3.788;2022-08-21T16:22:26;27.00;99.90
27226;DHT22;14732;51.074;3.788;2022-08-21T16:24:52;27.10;99.90
27226;DHT22;14732;51.074;3.788;2022-08-21T16:27:17;27.00;99.90
27226;DHT22;14732;51.074;3.788;2022-08-21T16:29:44;26.90;99.90
27226;DHT22;14732;51.074;3.788;2022-08-21T16:32:10;27.00;99.90
27226;DHT22;14732;51.074;3.788;2022-08-21T16:34:39;26.80;99.90
27226;DHT22;14732;51.074;3.788;2022-08-21T16:37:06;26.80;99.90
27226;DHT22;14732;51.074;3.788;2022-08-21T16:39:32;26.90;99.90
27226;DHT22;14732;51.074;3.788;2022-08-21T16:41:58;27.00;99.90
27226;DHT22;14732;51.074;3.788;2022-08-21T16:44:23;26.70;99.90
27226;DHT22;14732;51.074;3.788;2022-08-21T16:46:49;26.50;99.90
27226;DHT22;14732;51.074;3.788;2022-08-21T16:49:15;26.50;99.90
27226;DHT22;14732;51.074;3.788;2022-08-21T16:51:41;26.50;99.90
27226;DHT22;14732;51.074;3.788;2022-08-21T16:54:08;26.50;99.90
27226;DHT22;14732;51.074;3.788;2022-08-21T16:56:34;26.40;99.90
27226;DHT22;14732;51.074;3.788;2022-08-21T16:59:02;26.40;99.90